Time;durP1;ratioP1;P1;durP2;ratioP2;P2;SDS_P1;SDS_P2;PMS_P1;PMS_P2;Temp;Humidity;BMP_temperature;BMP_pressure;BME280_temperature;BME280_humidity;BME280_pressure;Samples;Min_cycle;Max_cycle;Signal;HPM_P1;HPM_P2
2022/03/08 00:00:55;;;;;;;7.57;4.10;;;;;;;4.96;41.66;102362.66;4989927;28;124045;-60
2022/03/08 00:03:23;;;;;;;8.82;3.97;;;;;;;4.95;41.49;102356.50;4992351;28;114646;-60
2022/03/08 00:05:50;;;;;;;7.60;3.97;;;;;;;4.94;41.79;102353.91;4991056;28;114005;-60
2022/03/08 00:08:17;;;;;;;6.18;3.65;;;;;;;4.95;41.82;102350.41;4989291;28;124071;-60
2022/03/08 00:10:45;;;;;;;5.95;3.35;;;;;;;4.95;41.66;102345.16;4990731;28;124090;-61
2022/03/08 00:13:12;;;;;;;8.75;3.70;;;;;;;4.94;41.80;102348.66;4990800;28;114273;-60
2022/03/08 00:15:39;;;;;;;5.05;3.30;;;;;;;4.92;41.83;102335.53;4993041;28;115011;-60
2022/03/08 00:18:07;;;;;;;7.15;3.90;;;;;;;4.91;41.75;102348.66;4989053;28;123638;-60
2022/03/08 00:20:34;;;;;;;5.82;3.35;;;;;;;4.90;41.85;102339.00;4991788;28;123034;-60
2022/03/08 00:23:02;;;;;;;6.82;3.72;;;;;;;4.90;41.76;102333.75;4991158;28;115616;-60
2022/03/08 00:25:30;;;;;;;5.40;3.38;;;;;;;4.87;41.80;102335.50;4990523;28;116002;-60
2022/03/08 00:27:58;;;;;;;5.47;3.20;;;;;;;4.86;42.01;102336.38;4990024;28;124050;-60
2022/03/08 00:30:26;;;;;;;7.38;3.60;;;;;;;4.85;41.86;102334.63;4991183;28;123529;-60
2022/03/08 00:32:55;;;;;;;6.70;3.38;;;;;;;4.85;41.75;102344.25;4991090;28;114740;-60
2022/03/08 00:35:24;;;;;;;5.25;3.40;;;;;;;4.84;42.07;102340.75;4990159;28;114290;-60
2022/03/08 00:37:52;;;;;;;8.18;3.65;;;;;;;4.84;41.95;102337.22;4991660;28;123107;-60
2022/03/08 00:40:21;;;;;;;6.90;3.60;;;;;;;4.83;41.93;102344.25;4989671;28;124546;-60
2022/03/08 00:42:50;;;;;;;5.22;3.40;;;;;;;4.82;41.88;102352.09;4992368;28;114300;-60
2022/03/08 00:45:18;;;;;;;6.55;4.00;;;;;;;4.81;41.88;102348.63;4991643;28;113399;-60
2022/03/08 00:47:45;;;;;;;6.43;3.45;;;;;;;4.82;41.90;102349.47;4991204;28;123667;-60
2022/03/08 00:50:18;;;;;;;6.00;3.45;;;;;;;4.79;41.84;102347.72;4990911;28;123487;-60
2022/03/08 00:52:46;;;;;;;5.80;3.60;;;;;;;4.81;41.96;102343.38;4991357;28;114149;-60
2022/03/08 00:55:18;;;;;;;5.38;3.35;;;;;;;4.82;41.88;102339.88;4989675;28;114290;-61
2022/03/08 00:57:47;;;;;;;7.25;3.50;;;;;;;4.82;41.95;102350.38;4989387;28;124067;-60
2022/03/08 01:00:17;;;;;;;6.85;3.30;;;;;;;4.82;41.91;102345.13;4988873;28;123985;-60
2022/03/08 01:02:45;;;;;;;7.85;3.58;;;;;;;4.82;41.91;102345.13;4990816;28;114419;-60
2022/03/08 01:05:13;;;;;;;7.88;3.60;;;;;;;4.83;41.87;102336.38;4992478;28;113323;-60
2022/03/08 01:07:41;;;;;;;7.28;3.58;;;;;;;4.81;41.83;102338.13;4991242;28;122953;-60
2022/03/08 01:10:11;;;;;;;6.47;3.60;;;;;;;4.83;41.81;102331.13;4989932;28;124496;-60
2022/03/08 01:12:39;;;;;;;7.53;3.80;;;;;;;4.82;41.82;102334.63;4991655;28;115370;-60
2022/03/08 01:15:07;;;;;;;6.15;3.22;;;;;;;4.81;41.69;102327.63;4989525;28;115085;-60
2022/03/08 01:17:34;;;;;;;6.82;3.40;;;;;;;4.80;41.82;102323.25;4990558;28;124326;-60
2022/03/08 01:20:04;;;;;;;6.10;3.70;;;;;;;4.78;42.10;102327.59;4988229;28;124197;-60
2022/03/08 01:22:32;;;;;;;6.90;3.38;;;;;;;4.76;41.84;102324.09;5000162;28;113723;-60
2022/03/08 01:25:00;;;;;;;6.03;3.50;;;;;;;4.75;41.70;102317.09;5012138;28;114062;-61
2022/03/08 01:27:28;;;;;;;6.10;2.90;;;;;;;4.73;41.95;102313.59;5011730;28;124071;-60
2022/03/08 01:29:55;;;;;;;5.05;3.25;;;;;;;4.73;41.67;102312.69;5008632;28;124574;-60
2022/03/08 01:32:23;;;;;;;7.35;3.30;;;;;;;4.73;41.71;102317.94;5011082;28;114527;-60
2022/03/08 01:34:50;;;;;;;4.95;3.42;;;;;;;4.73;41.89;102313.59;5011043;28;113128;-60
2022/03/08 01:37:17;;;;;;;6.18;3.30;;;;;;;4.72;41.71;102309.22;5008276;28;124736;-60
2022/03/08 01:39:44;;;;;;;5.57;3.35;;;;;;;4.70;41.71;102308.34;5011328;28;123887;-61
2022/03/08 01:42:15;;;;;;;6.05;3.65;;;;;;;4.70;41.96;102305.72;5010928;28;113163;-60
2022/03/08 01:44:44;;;;;;;6.85;3.35;;;;;;;4.68;41.83;102296.97;4994678;28;113056;-61
2022/03/08 01:47:17;;;;;;;5.38;3.13;;;;;;;4.65;41.88;102300.47;5010664;28;123796;-60
2022/03/08 01:49:45;;;;;;;7.68;3.67;;;;;;;4.63;41.72;102290.81;5009800;28;123220;-60
2022/03/08 01:52:12;;;;;;;6.32;3.47;;;;;;;4.61;41.81;102297.81;5010348;28;113121;-61
2022/03/08 01:54:41;;;;;;;6.25;3.67;;;;;;;4.59;41.84;102289.06;5008724;28;114044;-60
2022/03/08 01:57:08;;;;;;;6.63;3.60;;;;;;;4.60;41.83;102285.56;5009618;28;124172;-60
2022/03/08 01:59:36;;;;;;;6.05;3.45;;;;;;;4.59;41.75;102283.81;5010372;28;123872;-60
2022/03/08 02:02:04;;;;;;;7.10;3.30;;;;;;;4.56;41.70;102278.53;5010833;28;116578;-60
2022/03/08 02:04:32;;;;;;;6.00;3.40;;;;;;;4.54;41.80;102275.94;5011483;28;115424;-60
2022/03/08 02:07:00;;;;;;;5.40;3.30;;;;;;;4.54;42.05;102275.03;5010093;28;123004;-60
2022/03/08 02:09:27;;;;;;;6.53;3.58;;;;;;;4.52;41.85;102266.28;5009472;28;124234;-61
2022/03/08 02:11:54;;;;;;;10.40;3.65;;;;;;;4.49;41.84;102265.41;5009432;28;114003;-61
2022/03/08 02:14:21;;;;;;;6.38;3.35;;;;;;;4.47;42.08;102258.41;5011718;28;113877;-60
2022/03/08 02:16:49;;;;;;;7.43;3.45;;;;;;;4.45;41.99;102266.28;5008169;28;124817;-61
2022/03/08 02:19:16;;;;;;;5.25;3.50;;;;;;;4.44;42.06;102264.50;5011794;28;124447;-61
2022/03/08 02:21:43;;;;;;;7.03;3.78;;;;;;;4.43;42.08;102256.66;5006537;28;114139;-62
2022/03/08 02:24:11;;;;;;;7.30;3.53;;;;;;;4.40;41.95;102254.88;5010334;28;112890;-60
2022/03/08 02:26:38;;;;;;;8.13;3.50;;;;;;;4.37;41.96;102252.28;5009458;28;124055;-60
2022/03/08 02:29:08;;;;;;;7.38;3.63;;;;;;;4.35;42.06;102254.00;5008062;28;124402;-60
2022/03/08 02:31:35;;;;;;;9.60;3.90;;;;;;;4.35;42.21;102253.13;5009946;28;114279;-61
2022/03/08 02:34:04;;;;;;;6.97;3.45;;;;;;;4.35;42.07;102248.78;5010709;28;113972;-61
2022/03/08 02:36:31;;;;;;;7.47;3.83;;;;;;;4.34;42.02;102241.75;5007906;28;124119;-61
2022/03/08 02:38:58;;;;;;;6.60;3.65;;;;;;;4.34;42.01;102236.50;5009401;28;124300;-61
2022/03/08 02:41:25;;;;;;;8.55;4.00;;;;;;;4.33;42.26;102234.75;5009558;28;114344;-62
2022/03/08 02:43:53;;;;;;;8.48;3.72;;;;;;;4.33;42.15;102234.75;5011113;28;114033;-61
2022/03/08 02:46:20;;;;;;;6.80;3.88;;;;;;;4.33;42.18;102224.25;5010748;28;123819;-61
2022/03/08 02:48:47;;;;;;;7.45;3.40;;;;;;;4.34;42.14;102220.78;5009373;28;123186;-61
2022/03/08 02:51:14;;;;;;;6.97;3.70;;;;;;;4.35;42.04;102222.53;5009112;28;114672;-61
2022/03/08 02:53:42;;;;;;;6.20;3.55;;;;;;;4.35;42.18;102217.28;5009910;28;115415;-61
2022/03/08 02:56:09;;;;;;;6.38;3.70;;;;;;;4.35;42.17;102222.53;5007789;28;124153;-61
2022/03/08 02:58:36;;;;;;;6.05;3.67;;;;;;;4.34;42.12;102220.78;5007884;28;124378;-62
2022/03/08 03:01:03;;;;;;;6.47;3.58;;;;;;;4.33;42.18;102213.75;5007431;28;114913;-61
2022/03/08 03:03:30;;;;;;;8.68;3.95;;;;;;;4.32;42.23;102212.03;5010074;28;114172;-61
2022/03/08 03:05:58;;;;;;;6.28;3.40;;;;;;;4.33;42.25;102208.53;5007614;28;124229;-61
2022/03/08 03:08:25;;;;;;;6.63;3.65;;;;;;;4.34;42.33;102210.28;5009895;28;124258;-61
2022/03/08 03:10:53;;;;;;;7.40;3.78;;;;;;;4.35;42.20;102212.06;5007344;28;114242;-62
2022/03/08 03:13:20;;;;;;;8.98;3.83;;;;;;;4.33;42.14;102215.53;5010796;28;115095;-61
2022/03/08 03:15:47;;;;;;;6.57;3.85;;;;;;;4.31;42.28;102210.25;5006914;28;124154;-61
2022/03/08 03:18:15;;;;;;;8.55;4.18;;;;;;;4.30;42.19;102213.78;5008452;28;124597;-60
2022/03/08 03:20:42;;;;;;;7.55;3.45;;;;;;;4.28;42.14;102215.53;5007304;28;114644;-60
2022/03/08 03:23:09;;;;;;;6.38;3.50;;;;;;;4.29;42.20;102212.00;5009963;28;114769;-60
2022/03/08 03:25:36;;;;;;;8.63;3.85;;;;;;;4.29;42.30;102217.25;5009104;28;123333;-61
2022/03/08 03:28:03;;;;;;;6.70;3.70;;;;;;;4.27;42.07;102214.63;5007343;28;123019;-60
2022/03/08 03:30:31;;;;;;;8.38;3.88;;;;;;;4.26;42.17;102206.78;5007742;28;114628;-60
2022/03/08 03:32:58;;;;;;;6.95;4.10;;;;;;;4.25;42.22;102199.75;5009413;28;114025;-60
2022/03/08 03:35:25;;;;;;;7.18;3.95;;;;;;;4.22;42.10;102197.13;5009176;28;124350;-61
2022/03/08 03:37:53;;;;;;;8.48;3.83;;;;;;;4.20;42.17;102202.38;5007169;28;123830;-60
2022/03/08 03:40:20;;;;;;;6.45;3.47;;;;;;;4.18;42.16;102200.63;5009061;28;115462;-60
2022/03/08 03:42:48;;;;;;;7.10;3.72;;;;;;;4.15;42.45;102198.00;5010586;28;115246;-61
2022/03/08 03:45:15;;;;;;;6.38;3.53;;;;;;;4.14;42.33;102201.47;5011260;28;124344;-60
2022/03/08 03:47:42;;;;;;;6.65;4.13;;;;;;;4.13;42.20;102202.38;5010710;28;124829;-60
2022/03/08 03:50:10;;;;;;;7.13;4.13;;;;;;;4.11;42.43;102202.34;5010280;28;114591;-60
2022/03/08 03:52:38;;;;;;;7.45;3.47;;;;;;;4.09;41.91;102194.47;5011634;28;114240;-60
2022/03/08 03:55:11;;;;;;;8.30;3.80;;;;;;;4.08;42.38;102197.94;5013633;28;126155;-61
2022/03/08 03:57:39;;;;;;;11.52;4.07;;;;;;;4.08;42.18;102197.94;5003934;28;123382;-60
2022/03/08 04:00:09;;;;;;;8.43;3.97;;;;;;;4.06;42.37;102204.94;4991858;28;113190;-60
2022/03/08 04:02:39;;;;;;;7.43;3.70;;;;;;;4.06;42.28;102204.94;4991711;28;114134;-60
2022/03/08 04:05:08;;;;;;;5.30;3.53;;;;;;;4.06;42.44;102199.69;4990005;28;124046;-60
2022/03/08 04:07:37;;;;;;;8.00;3.80;;;;;;;4.05;42.47;102197.97;4990450;28;124075;-60
2022/03/08 04:10:06;;;;;;;7.53;4.15;;;;;;;4.04;42.37;102193.56;4990915;28;114496;-60
2022/03/08 04:12:33;;;;;;;9.88;3.75;;;;;;;4.04;42.46;102196.19;4991819;28;113985;-60
2022/03/08 04:15:01;;;;;;;7.22;4.18;;;;;;;4.03;42.53;102204.94;4992145;28;123734;-60
2022/03/08 04:17:28;;;;;;;7.95;4.38;;;;;;;4.02;42.37;102197.94;4992485;28;123940;-60
2022/03/08 04:19:55;;;;;;;7.60;4.43;;;;;;;4.01;42.56;102195.31;4991093;28;113255;-60
2022/03/08 04:22:23;;;;;;;7.95;4.03;;;;;;;4.01;42.45;102190.97;4990942;28;113944;-60
2022/03/08 04:24:54;;;;;;;9.85;4.25;;;;;;;4.01;42.64;102196.22;4990969;28;124076;-61
2022/03/08 04:27:21;;;;;;;7.35;3.90;;;;;;;4.00;42.57;102193.56;4992474;28;123757;-61
2022/03/08 04:29:48;;;;;;;6.65;4.15;;;;;;;3.99;42.65;102182.19;4991252;28;114947;-61
2022/03/08 04:32:15;;;;;;;6.20;4.03;;;;;;;3.99;42.73;102176.94;4989544;28;115401;-61
2022/03/08 04:34:43;;;;;;;9.65;3.75;;;;;;;3.99;42.49;102171.69;4990291;28;123861;-61
2022/03/08 04:37:10;;;;;;;8.77;4.30;;;;;;;4.00;42.70;102168.22;4991604;28;122927;-61
2022/03/08 04:39:37;;;;;;;7.78;3.75;;;;;;;4.01;42.52;102170.00;4992373;28;113440;-61
2022/03/08 04:42:04;;;;;;;11.13;4.28;;;;;;;4.03;42.46;102178.72;4991578;28;115139;-61
2022/03/08 04:44:31;;;;;;;8.00;4.15;;;;;;;4.04;42.77;102177.84;4990055;28;123847;-61
2022/03/08 04:46:59;;;;;;;5.85;3.42;;;;;;;4.04;42.62;102175.22;4992962;28;123740;-62
2022/03/08 04:49:26;;;;;;;7.65;4.10;;;;;;;4.06;42.62;102173.47;4990354;28;114923;-62
2022/03/08 04:51:53;;;;;;;7.25;3.90;;;;;;;4.06;42.59;102178.72;4991157;28;114632;-61
2022/03/08 04:54:20;;;;;;;5.80;3.63;;;;;;;4.05;42.58;102182.22;4990717;28;124479;-61
2022/03/08 04:56:47;;;;;;;7.85;3.70;;;;;;;4.04;42.74;102180.47;4991833;28;124067;-62
2022/03/08 04:59:14;;;;;;;7.43;4.05;;;;;;;4.04;42.56;102184.84;4992274;28;114327;-61
2022/03/08 05:01:42;;;;;;;7.72;4.20;;;;;;;4.02;42.49;102182.22;4989355;28;114250;-62
2022/03/08 05:04:09;;;;;;;7.30;4.00;;;;;;;4.00;42.67;102186.56;4991432;28;124183;-61
2022/03/08 05:06:36;;;;;;;7.50;3.83;;;;;;;3.97;42.59;102183.94;4990957;28;123990;-61
2022/03/08 05:09:03;;;;;;;6.82;3.75;;;;;;;3.96;42.52;102184.81;4991878;28;113232;-61
2022/03/08 05:11:30;;;;;;;5.88;3.90;;;;;;;3.95;42.67;102180.44;4989681;28;114293;-62
2022/03/08 05:14:04;;;;;;;8.40;4.13;;;;;;;3.94;42.90;102178.69;4992002;28;124738;-62
2022/03/08 05:16:31;;;;;;;6.97;4.15;;;;;;;3.92;42.83;102188.31;4989465;28;124484;-62
2022/03/08 05:18:58;;;;;;;9.13;4.72;;;;;;;3.90;42.62;102182.19;4990519;28;115080;-61
2022/03/08 05:21:26;;;;;;;7.10;4.15;;;;;;;3.88;42.83;102173.41;4990586;28;114612;-61
2022/03/08 05:23:53;;;;;;;7.40;4.30;;;;;;;3.84;42.78;102176.88;4991578;28;124479;-61
2022/03/08 05:26:20;;;;;;;8.45;4.25;;;;;;;3.81;42.95;102171.66;4991699;28;124095;-61
2022/03/08 05:28:47;;;;;;;6.80;4.35;;;;;;;3.79;42.80;102168.16;4991098;28;114396;-62
2022/03/08 05:31:14;;;;;;;8.60;4.10;;;;;;;3.76;42.75;102173.38;4987755;28;113851;-61
2022/03/08 05:33:42;;;;;;;6.88;4.07;;;;;;;3.73;42.75;102169.00;4991269;28;124428;-62
2022/03/08 05:36:09;;;;;;;8.68;4.25;;;;;;;3.72;42.91;102171.59;4989593;28;125019;-61
2022/03/08 05:38:36;;;;;;;7.63;4.65;;;;;;;3.68;42.85;102176.81;4989452;28;114514;-61
2022/03/08 05:41:04;;;;;;;7.45;4.47;;;;;;;3.67;42.97;102169.84;4988806;28;114686;-61
2022/03/08 05:43:31;;;;;;;8.35;4.07;;;;;;;3.66;42.83;102168.09;4988979;28;124601;-61
2022/03/08 05:45:59;;;;;;;7.85;4.30;;;;;;;3.63;42.90;102168.06;4990070;28;124658;-61
2022/03/08 05:48:27;;;;;;;7.43;4.35;;;;;;;3.62;42.92;102166.31;4990544;28;114560;-61
2022/03/08 05:50:54;;;;;;;7.97;4.28;;;;;;;3.61;42.81;102168.94;4988768;28;114200;-61
2022/03/08 05:53:21;;;;;;;9.88;4.05;;;;;;;3.60;43.01;102173.28;4989787;28;123242;-61
2022/03/08 05:55:48;;;;;;;8.55;4.55;;;;;;;3.58;42.92;102159.31;4989773;28;122733;-61
2022/03/08 05:58:15;;;;;;;9.70;4.35;;;;;;;3.56;43.08;102168.91;4988253;28;114602;-61
2022/03/08 06:00:43;;;;;;;8.48;4.50;;;;;;;3.54;42.79;102168.00;4989094;28;114015;-61
2022/03/08 06:03:10;;;;;;;8.40;4.22;;;;;;;3.53;42.91;102171.50;4973788;28;123926;-61
2022/03/08 06:05:37;;;;;;;9.20;4.60;;;;;;;3.52;43.00;102185.44;4986706;28;124504;-60
2022/03/08 06:08:05;;;;;;;7.82;4.63;;;;;;;3.50;43.07;102171.47;4991065;28;115221;-61
2022/03/08 06:10:32;;;;;;;7.55;4.47;;;;;;;3.49;43.32;102174.97;4991185;28;115446;-61
2022/03/08 06:13:00;;;;;;;7.93;4.72;;;;;;;3.48;43.18;102178.44;4990195;28;123831;-61
2022/03/08 06:15:27;;;;;;;8.25;4.22;;;;;;;3.48;43.27;102178.44;4990288;28;124234;-61
2022/03/08 06:17:54;;;;;;;6.93;4.38;;;;;;;3.47;43.17;102180.19;4989148;28;114713;-60
2022/03/08 06:20:21;;;;;;;7.70;4.40;;;;;;;3.48;43.12;102186.31;4988384;28;114120;-60
2022/03/08 06:22:48;;;;;;;9.63;4.55;;;;;;;3.49;43.33;102190.69;4990745;28;123814;-60
2022/03/08 06:25:16;;;;;;;9.65;4.63;;;;;;;3.50;43.11;102187.19;4988985;28;124227;-60
2022/03/08 06:27:43;;;;;;;8.98;4.40;;;;;;;3.52;43.45;102190.69;4988851;28;114106;-61
2022/03/08 06:30:11;;;;;;;9.43;4.32;;;;;;;3.53;43.48;102192.47;4989802;28;113844;-60
2022/03/08 06:32:38;;;;;;;7.32;4.32;;;;;;;3.54;43.37;102178.47;4988328;28;123760;-60
2022/03/08 06:35:06;;;;;;;8.65;4.38;;;;;;;3.57;43.33;102182.88;4988546;28;123912;-61
2022/03/08 06:37:33;;;;;;;8.93;4.68;;;;;;;3.59;43.40;102187.25;4991649;28;114216;-60
2022/03/08 06:40:01;;;;;;;8.85;5.13;;;;;;;3.62;43.43;102182.03;4988623;28;113960;-60
2022/03/08 06:42:29;;;;;;;10.35;4.97;;;;;;;3.64;43.40;102185.53;4989067;28;124053;-60
2022/03/08 06:44:56;;;;;;;8.43;4.50;;;;;;;3.67;43.58;102180.31;4990034;28;124379;-60
2022/03/08 06:47:23;;;;;;;7.55;4.40;;;;;;;3.70;43.42;102185.56;4988863;28;114349;-61
2022/03/08 06:49:50;;;;;;;7.75;4.88;;;;;;;3.74;43.66;102180.34;4988585;28;113987;-60
2022/03/08 06:52:17;;;;;;;7.68;4.20;;;;;;;3.78;43.60;102176.88;4988471;28;124396;-60
2022/03/08 06:54:44;;;;;;;8.50;4.30;;;;;;;3.85;43.47;102183.91;4989134;28;124015;-60
2022/03/08 06:57:12;;;;;;;8.45;4.60;;;;;;;3.92;43.69;102169.94;4989514;28;115474;-60
2022/03/08 06:59:39;;;;;;;8.65;4.47;;;;;;;4.03;43.73;102177.84;4989802;28;114846;-60
2022/03/08 07:02:06;;;;;;;7.93;4.65;;;;;;;4.15;43.91;102174.41;4989125;28;123201;-60
2022/03/08 07:04:33;;;;;;;7.72;4.60;;;;;;;4.29;43.84;102167.44;4990622;28;124323;-60
2022/03/08 07:07:01;;;;;;;7.40;4.53;;;;;;;4.44;43.77;102170.06;4988356;28;114616;-60
2022/03/08 07:09:29;;;;;;;8.32;4.43;;;;;;;4.61;43.95;102169.22;4988273;28;114189;-61
2022/03/08 07:11:56;;;;;;;7.65;4.50;;;;;;;4.76;43.87;102171.88;4988943;28;124361;-60
2022/03/08 07:14:23;;;;;;;10.68;4.90;;;;;;;4.90;44.43;102163.13;4991488;28;123456;-61
2022/03/08 07:16:51;;;;;;;7.72;4.28;;;;;;;5.03;43.90;102164.88;4989392;28;114619;-61
2022/03/08 07:19:18;;;;;;;8.70;4.40;;;;;;;5.18;43.85;102179.72;4990339;28;114148;-61
2022/03/08 07:21:48;;;;;;;9.57;4.78;;;;;;;5.30;43.81;102182.34;4990497;28;124502;-61
2022/03/08 07:24:15;;;;;;;14.02;4.65;;;;;;;5.45;43.58;102178.81;4994222;28;124049;-61
2022/03/08 07:26:42;;;;;;;8.18;4.97;;;;;;;5.57;43.80;102178.78;4993605;28;114583;-61
2022/03/08 07:29:09;;;;;;;8.82;4.80;;;;;;;5.70;43.67;102176.13;4991561;28;114146;-61
2022/03/08 07:31:37;;;;;;;8.50;4.30;;;;;;;5.80;43.53;102185.72;4991901;28;124636;-61
2022/03/08 07:34:04;;;;;;;9.38;4.57;;;;;;;5.90;43.36;102182.19;4993682;28;124524;-61
2022/03/08 07:36:32;;;;;;;8.50;4.38;;;;;;;5.99;43.31;102176.94;4992519;28;114808;-61
2022/03/08 07:39:00;;;;;;;9.50;4.88;;;;;;;6.09;42.96;102176.88;4993591;28;112963;-61
2022/03/08 07:41:27;;;;;;;7.43;4.53;;;;;;;6.17;43.07;102185.59;4990709;28;124852;-61
2022/03/08 07:43:54;;;;;;;7.07;4.88;;;;;;;6.24;42.93;102172.41;4993439;28;124183;-61
2022/03/08 07:46:21;;;;;;;7.22;4.68;;;;;;;6.31;42.70;102183.78;4993598;28;115102;-61
2022/03/08 07:48:49;;;;;;;8.48;4.93;;;;;;;6.37;42.93;102189.00;4991309;28;115681;-62
2022/03/08 07:51:36;;;;;;;7.75;4.72;;;;;;;6.43;42.58;102191.59;4990467;28;124559;-61
2022/03/08 07:54:03;;;;;;;8.23;4.72;;;;;;;6.49;42.75;102197.72;4993326;28;124515;-62
2022/03/08 07:56:30;;;;;;;9.23;4.90;;;;;;;6.53;42.53;102194.16;4993854;28;114363;-62
2022/03/08 07:58:57;;;;;;;9.05;5.03;;;;;;;6.56;42.65;102184.50;4991140;28;114047;-62
2022/03/08 08:01:25;;;;;;;6.57;4.30;;;;;;;6.61;42.41;102189.72;4991079;28;124541;-60
2022/03/08 08:03:52;;;;;;;7.05;4.28;;;;;;;6.65;42.25;102183.56;4993159;28;124469;-60
2022/03/08 08:06:19;;;;;;;7.03;4.63;;;;;;;6.67;42.44;102176.53;4992470;28;113847;-61
2022/03/08 08:08:48;;;;;;;6.07;4.22;;;;;;;6.71;42.30;102183.53;4993281;28;113889;-61
2022/03/08 08:11:15;;;;;;;9.00;4.47;;;;;;;6.77;42.47;102178.19;4992225;28;124612;-61
2022/03/08 08:13:42;;;;;;;10.32;4.63;;;;;;;6.83;42.15;102185.19;4992471;28;124312;-61
2022/03/08 08:16:09;;;;;;;6.90;4.35;;;;;;;6.88;42.41;102174.63;4991953;28;114852;-61
2022/03/08 08:18:37;;;;;;;7.32;4.72;;;;;;;6.92;42.01;102181.59;4990737;28;114658;-61
2022/03/08 08:21:05;;;;;;;9.15;4.60;;;;;;;6.97;42.17;102179.81;4991915;28;124224;-61
2022/03/08 08:23:32;;;;;;;7.30;4.57;;;;;;;7.01;42.22;102177.13;4992716;28;125171;-61
2022/03/08 08:26:00;;;;;;;9.07;4.60;;;;;;;7.07;42.14;102181.47;4993162;28;114336;-61
2022/03/08 08:28:27;;;;;;;7.30;4.40;;;;;;;7.13;41.85;102181.41;4975383;28;113158;-62
2022/03/08 08:30:59;;;;;;;7.57;3.90;;;;;;;7.22;41.96;102181.31;4989770;28;124018;-62
2022/03/08 08:33:27;;;;;;;5.88;3.55;;;;;;;7.32;42.03;102194.41;4992045;28;124767;-62
2022/03/08 08:35:56;;;;;;;8.48;4.43;;;;;;;7.38;41.61;102191.72;4992078;28;115469;-62
2022/03/08 08:38:23;;;;;;;7.53;4.38;;;;;;;7.46;41.32;102189.88;4990368;28;115243;-62
2022/03/08 08:40:50;;;;;;;8.25;4.25;;;;;;;7.53;41.54;102186.28;4990286;28;124813;-62
2022/03/08 08:43:17;;;;;;;6.78;4.20;;;;;;;7.64;41.78;102182.66;4991510;28;124257;-62
2022/03/08 08:45:47;;;;;;;6.05;3.80;;;;;;;7.75;41.54;102175.50;4992197;28;114098;-61
2022/03/08 08:48:14;;;;;;;5.93;3.80;;;;;;;7.86;41.33;102184.16;4990367;28;113779;-62
2022/03/08 08:50:41;;;;;;;6.90;4.38;;;;;;;7.96;41.39;102171.72;4988170;28;124445;-61
2022/03/08 08:53:08;;;;;;;7.18;4.05;;;;;;;8.06;41.44;102169.84;4975546;28;123000;-61
2022/03/08 08:55:37;;;;;;;6.93;3.63;;;;;;;8.17;41.07;102178.47;4990315;28;114343;-61
2022/03/08 08:58:05;;;;;;;8.57;4.28;;;;;;;8.29;41.18;102167.75;4991632;28;114640;-63
2022/03/08 09:00:33;;;;;;;6.72;4.00;;;;;;;8.39;41.18;102166.72;4989153;28;124547;-62
2022/03/08 09:03:01;;;;;;;6.78;3.95;;;;;;;8.50;40.68;102161.31;4991003;28;123883;-61
2022/03/08 09:05:34;;;;;;;12.02;3.75;;;;;;;8.62;41.07;102162.91;4989993;28;114939;-61
2022/03/08 09:08:01;;;;;;;7.68;3.92;;;;;;;8.74;40.60;102152.16;4989877;28;114814;-62
2022/03/08 09:10:28;;;;;;;5.75;3.72;;;;;;;8.83;40.39;102155.53;4990264;28;123744;-62
2022/03/08 09:12:55;;;;;;;7.00;4.28;;;;;;;8.94;40.46;102145.66;4991211;28;122713;-61
2022/03/08 09:15:23;;;;;;;5.68;3.72;;;;;;;9.05;40.78;102138.41;4990136;28;114990;-62
2022/03/08 09:17:50;;;;;;;6.85;3.80;;;;;;;9.18;40.20;102143.47;4993118;28;114333;-62
2022/03/08 09:20:17;;;;;;;11.07;4.38;;;;;;;9.29;39.98;102141.53;4988865;28;124026;-62
2022/03/08 09:22:49;;;;;;;6.38;3.67;;;;;;;9.41;40.19;102138.63;4990615;28;123939;-62
2022/03/08 09:25:16;;;;;;;7.50;3.50;;;;;;;9.49;39.56;102131.44;4990326;28;114968;-62
2022/03/08 09:27:43;;;;;;;6.45;3.50;;;;;;;9.58;39.50;102127.72;4991697;28;114640;-62
2022/03/08 09:30:11;;;;;;;5.90;3.40;;;;;;;9.66;39.18;102115.22;4990576;28;123009;-62
2022/03/08 09:32:38;;;;;;;5.93;3.55;;;;;;;9.77;39.35;102127.34;4989875;28;124613;-61
2022/03/08 09:35:05;;;;;;;7.07;3.05;;;;;;;9.84;38.86;102129.81;4991596;28;113935;-61
2022/03/08 09:37:33;;;;;;;8.80;3.80;;;;;;;9.89;38.60;102127.97;4990881;28;114008;-61
2022/03/08 09:40:00;;;;;;;6.20;3.67;;;;;;;9.97;38.69;102124.28;4989911;28;124313;-61
2022/03/08 09:42:29;;;;;;;7.05;3.65;;;;;;;10.05;38.82;102117.03;4991621;28;124253;-61
2022/03/08 09:44:57;;;;;;;5.50;3.30;;;;;;;10.13;38.36;102120.34;4989396;28;114593;-62
2022/03/08 09:47:24;;;;;;;6.72;3.60;;;;;;;10.21;38.34;102110.50;4974964;28;113702;-62
2022/03/08 09:49:51;;;;;;;5.20;3.58;;;;;;;10.29;38.27;102105.88;4987875;28;123852;-62
2022/03/08 09:52:20;;;;;;;16.13;4.10;;;;;;;10.40;38.07;102102.16;4989377;28;124022;-62
2022/03/08 09:54:47;;;;;;;5.82;3.53;;;;;;;10.47;37.75;102109.00;4990041;28;114630;-62
2022/03/08 09:57:27;;;;;;;5.32;3.20;;;;;;;10.57;37.72;102094.66;4989217;28;114008;-62
2022/03/08 09:59:55;;;;;;;5.30;3.38;;;;;;;10.65;37.46;102103.25;4987918;28;124533;-62
2022/03/08 10:02:22;;;;;;;5.85;3.08;;;;;;;10.75;37.47;102124.22;4987945;28;124671;-64
2022/03/08 10:05:06;;;;;;;9.82;3.20;;;;;;;10.81;37.30;102108.16;4990884;28;114108;-63
2022/03/08 10:07:33;;;;;;;5.45;2.88;;;;;;;10.88;37.13;102117.72;4991405;28;112939;-63
2022/03/08 10:10:01;;;;;;;7.65;3.28;;;;;;;10.94;36.34;102093.69;4990507;28;124416;-62
2022/03/08 10:12:37;;;;;;;5.32;3.50;;;;;;;10.97;35.99;102098.91;4989379;28;123982;-63
2022/03/08 10:15:18;;;;;;;4.03;2.78;;;;;;;10.98;35.94;102095.38;4990202;28;114159;-62
2022/03/08 10:17:45;;;;;;;7.72;3.50;;;;;;;11.02;36.05;102086.41;4990949;28;114841;-63
2022/03/08 10:20:26;;;;;;;8.07;3.22;;;;;;;11.08;35.83;102094.19;4990936;28;123272;-64
2022/03/08 10:22:53;;;;;;;3.38;2.53;;;;;;;11.15;35.73;102096.69;4989219;28;124254;-62
2022/03/08 10:25:26;;;;;;;4.50;2.72;;;;;;;11.19;35.78;102104.53;4990129;28;114493;-63
2022/03/08 10:27:53;;;;;;;5.57;2.75;;;;;;;11.26;35.31;102084.88;4990315;28;113622;-63
2022/03/08 10:30:22;;;;;;;4.45;2.85;;;;;;;11.32;35.29;102088.25;4987652;28;124759;-62
2022/03/08 10:33:03;;;;;;;4.20;2.70;;;;;;;11.36;34.75;102085.50;4989814;28;123886;-62
2022/03/08 10:35:33;;;;;;;4.43;3.00;;;;;;;11.40;34.71;102092.44;4989010;28;114184;-62
2022/03/08 10:38:05;;;;;;;4.18;2.85;;;;;;;11.46;35.10;102092.25;4989745;28;114474;-62
2022/03/08 10:40:33;;;;;;;4.82;2.78;;;;;;;11.53;34.54;102086.75;4988794;28;123943;-62
2022/03/08 10:43:03;;;;;;;5.47;3.00;;;;;;;11.57;34.20;102083.13;4990501;28;123811;-62
2022/03/08 10:45:32;;;;;;;13.98;3.35;;;;;;;11.62;33.98;102090.03;4990603;28;113894;-62
2022/03/08 10:48:00;;;;;;;4.90;2.92;;;;;;;11.65;34.19;102074.00;4988458;28;114333;-62
2022/03/08 10:50:30;;;;;;;4.68;2.80;;;;;;;11.71;34.26;102080.94;4987414;28;125396;-63
2022/03/08 10:52:59;;;;;;;7.20;2.92;;;;;;;11.77;34.08;102067.50;4988393;28;124523;-63
2022/03/08 10:55:38;;;;;;;5.10;2.95;;;;;;;11.81;33.96;102071.78;4990767;28;114087;-63
2022/03/08 10:58:08;;;;;;;6.35;3.05;;;;;;;11.88;33.94;102056.53;4989103;28;114422;-62
2022/03/08 11:00:42;;;;;;;3.65;2.50;;;;;;;11.94;33.84;102060.81;4988015;28;124077;-63
2022/03/08 11:03:15;;;;;;;4.55;2.72;;;;;;;11.99;33.69;102061.53;4989379;28;124265;-62
2022/03/08 11:05:48;;;;;;;5.90;2.90;;;;;;;12.03;33.68;102060.50;4987762;28;115490;-59
2022/03/08 11:08:17;;;;;;;4.95;2.92;;;;;;;12.10;33.97;102062.06;4989444;28;114164;-61
2022/03/08 11:10:45;;;;;;;5.80;3.17;;;;;;;12.15;33.63;102076.06;4987940;28;123640;-60
2022/03/08 11:13:14;;;;;;;6.32;3.03;;;;;;;12.19;33.27;102061.78;4988995;28;123990;-60
2022/03/08 11:15:45;;;;;;;7.38;3.00;;;;;;;12.21;33.33;102054.63;4989633;28;114607;-61
2022/03/08 11:18:15;;;;;;;6.00;3.13;;;;;;;12.23;33.49;102039.50;4990198;28;114400;-61
2022/03/08 11:20:44;;;;;;;4.78;2.90;;;;;;;12.29;33.22;102040.22;4986940;28;124756;-61
2022/03/08 11:23:12;;;;;;;5.22;3.20;;;;;;;12.35;33.45;102034.69;4989392;28;123988;-62
2022/03/08 11:25:42;;;;;;;5.00;3.08;;;;;;;12.43;33.13;102032.66;4988498;28;114212;-60
2022/03/08 11:28:19;;;;;;;7.40;3.10;;;;;;;12.47;33.16;102023.69;4987986;28;113950;-60